createdAt,value
2018-11-29T00:00:44.330Z,18.27
2018-11-29T00:03:12.913Z,15.50
2018-11-29T00:05:41.792Z,17.95
2018-11-29T00:08:11.140Z,17.02
2018-11-29T00:10:39.664Z,18.05
2018-11-29T00:13:08.265Z,18.25
2018-11-29T00:15:36.810Z,15.95
2018-11-29T00:18:05.424Z,16.12
2018-11-29T00:20:34.102Z,17.02
2018-11-29T00:23:02.654Z,17.25
2018-11-29T00:25:31.218Z,17.48
2018-11-29T00:27:59.787Z,17.70
2018-11-29T00:30:28.322Z,17.37
2018-11-29T00:32:56.869Z,17.30
2018-11-29T00:35:25.390Z,17.10
2018-11-29T00:37:53.958Z,15.50
2018-11-29T00:40:23.982Z,17.20
2018-11-29T00:42:52.639Z,17.48
2018-11-29T00:45:22.137Z,16.55
2018-11-29T00:47:51.070Z,16.12
2018-11-29T00:50:20.318Z,15.58
2018-11-29T00:52:49.862Z,16.42
2018-11-29T00:55:21.286Z,17.45
2018-11-29T00:57:49.925Z,16.87
2018-11-29T01:00:19.630Z,16.87
2018-11-29T01:02:48.214Z,16.50
2018-11-29T01:05:16.763Z,15.30
2018-11-29T01:07:45.297Z,16.17
2018-11-29T01:10:14.767Z,16.20
2018-11-29T01:12:43.529Z,15.03
2018-11-29T01:15:15.775Z,15.72
2018-11-29T01:17:45.116Z,16.85
2018-11-29T01:20:15.594Z,17.37
2018-11-29T01:22:44.132Z,15.70
2018-11-29T01:25:13.537Z,16.85
2018-11-29T01:27:42.847Z,14.58
2018-11-29T01:30:13.473Z,15.05
2018-11-29T01:32:42.049Z,16.62
2018-11-29T01:35:11.636Z,15.85
2018-11-29T01:37:40.198Z,13.68
2018-11-29T01:40:23.860Z,12.68
2018-11-29T01:42:55.571Z,14.58
2018-11-29T01:45:24.259Z,15.05
2018-11-29T01:47:52.850Z,14.13
2018-11-29T01:50:21.463Z,12.53
2018-11-29T01:52:50.026Z,14.50
2018-11-29T01:55:18.569Z,13.50
2018-11-29T01:57:47.107Z,13.68
2018-11-29T02:00:16.536Z,13.43
2018-11-29T02:02:46.369Z,13.25
2018-11-29T02:05:15.016Z,14.47
2018-11-29T02:07:43.549Z,12.75
2018-11-29T02:10:19.289Z,13.40
2018-11-29T02:12:47.885Z,14.38
2018-11-29T02:15:16.469Z,12.03
2018-11-29T02:17:45.034Z,14.30
2018-11-29T02:20:15.509Z,13.80
2018-11-29T02:22:44.386Z,15.25
2018-11-29T02:25:12.930Z,13.78
2018-11-29T02:27:41.511Z,13.58
2018-11-29T02:30:17.573Z,13.95
2018-11-29T02:32:46.485Z,13.38
2018-11-29T02:35:15.122Z,13.60
2018-11-29T02:37:43.707Z,13.13
2018-11-29T02:40:13.381Z,13.10
2018-11-29T02:42:42.123Z,13.50
2018-11-29T02:45:14.851Z,14.93
2018-11-29T02:47:43.416Z,13.70
2018-11-29T02:50:12.263Z,14.15
2018-11-29T02:52:40.804Z,14.20
2018-11-29T02:55:10.578Z,12.93
2018-11-29T02:57:39.145Z,12.68
2018-11-29T03:00:11.490Z,14.20
2018-11-29T03:02:40.064Z,14.50
2018-11-29T03:05:08.774Z,11.48
2018-11-29T03:07:37.877Z,13.35
2018-11-29T03:10:12.520Z,12.37
2018-11-29T03:12:41.270Z,12.85
2018-11-29T03:15:13.807Z,13.22
2018-11-29T03:17:42.486Z,12.33
2018-11-29T03:20:12.858Z,13.58
2018-11-29T03:22:41.469Z,12.73
2018-11-29T03:25:12.823Z,11.53
2018-11-29T03:27:41.503Z,12.80
2018-11-29T03:30:13.375Z,12.50
2018-11-29T03:32:42.434Z,13.13
2018-11-29T03:35:12.043Z,13.05
2018-11-29T03:37:40.607Z,12.40
2018-11-29T03:40:11.471Z,12.20
2018-11-29T03:42:40.059Z,11.08
2018-11-29T03:45:10.261Z,11.97
2018-11-29T03:47:38.920Z,11.90
2018-11-29T03:50:16.776Z,11.83
2018-11-29T03:52:45.428Z,11.10
2018-11-29T03:55:13.988Z,11.88
2018-11-29T03:57:42.554Z,11.50
2018-11-29T04:00:18.791Z,11.50
2018-11-29T04:02:48.698Z,10.63
2018-11-29T04:05:17.344Z,12.20
2018-11-29T04:07:45.978Z,12.43
2018-11-29T04:10:15.527Z,11.15
2018-11-29T04:12:44.134Z,11.03
2018-11-29T04:15:14.719Z,12.40
2018-11-29T04:17:43.311Z,10.88
2018-11-29T04:20:13.927Z,11.00
2018-11-29T04:22:42.580Z,11.68
2018-11-29T04:25:12.242Z,11.12
2018-11-29T04:27:40.829Z,12.82
2018-11-29T04:30:12.671Z,11.08
2018-11-29T04:32:41.246Z,12.37
2018-11-29T04:35:10.456Z,11.35
2018-11-29T04:37:39.145Z,10.50
2018-11-29T04:40:11.362Z,11.00
2018-11-29T04:42:39.942Z,9.33
2018-11-29T04:45:10.316Z,10.60
2018-11-29T04:47:38.859Z,9.93
2018-11-29T04:50:07.570Z,10.00
2018-11-29T04:52:43.088Z,11.80
2018-11-29T04:55:11.677Z,11.73
2018-11-29T04:57:40.219Z,10.30
2018-11-29T05:00:17.623Z,9.40
2018-11-29T05:02:46.210Z,11.40
2018-11-29T05:05:14.947Z,10.25
2018-11-29T05:07:43.547Z,13.00
2018-11-29T05:10:13.156Z,11.90
2018-11-29T05:12:41.766Z,9.95
2018-11-29T05:15:11.425Z,10.45
2018-11-29T05:17:40.029Z,11.45
2018-11-29T05:20:08.928Z,9.25
2018-11-29T05:22:37.500Z,10.80
2018-11-29T05:25:07.315Z,10.80
2018-11-29T05:27:36.170Z,10.18
2018-11-29T05:30:13.627Z,11.35
2018-11-29T05:32:42.166Z,10.05
2018-11-29T05:35:11.760Z,10.32
2018-11-29T05:37:40.398Z,9.83
2018-11-29T05:40:10.587Z,10.30
2018-11-29T05:42:39.201Z,10.50
2018-11-29T05:45:08.770Z,9.48
2018-11-29T05:47:37.281Z,10.10
2018-11-29T05:50:08.727Z,12.03
2018-11-29T05:52:37.306Z,9.98
2018-11-29T05:55:07.531Z,10.75
2018-11-29T05:57:36.071Z,11.28
2018-11-29T06:00:05.742Z,8.88
2018-11-29T06:02:34.290Z,10.20
2018-11-29T06:05:02.825Z,9.63
2018-11-29T06:07:31.377Z,11.03
2018-11-29T06:09:59.891Z,10.20
2018-11-29T06:12:28.429Z,8.78
2018-11-29T06:14:57.011Z,10.08
2018-11-29T06:17:25.558Z,11.43
2018-11-29T06:19:54.106Z,10.53
2018-11-29T06:22:22.669Z,10.05
2018-11-29T06:24:51.258Z,11.55
2018-11-29T06:27:19.827Z,11.30
2018-11-29T06:29:48.407Z,10.48
2018-11-29T06:32:16.982Z,9.78
2018-11-29T06:34:45.526Z,9.88
2018-11-29T06:37:14.025Z,8.73
2018-11-29T06:39:42.610Z,9.60
2018-11-29T06:42:11.202Z,10.05
2018-11-29T06:44:39.734Z,9.93
2018-11-29T06:47:08.307Z,8.50
2018-11-29T06:49:36.870Z,10.20
2018-11-29T06:52:06.061Z,10.20
2018-11-29T06:54:34.622Z,9.35
2018-11-29T06:57:03.173Z,9.83
2018-11-29T06:59:31.710Z,9.43
2018-11-29T07:02:00.280Z,11.25
2018-11-29T07:04:28.815Z,9.80
2018-11-29T07:06:57.345Z,10.53
2018-11-29T07:09:25.941Z,11.68
2018-11-29T07:11:54.493Z,11.53
2018-11-29T07:14:23.043Z,13.68
2018-11-29T07:16:51.633Z,14.18
2018-11-29T07:19:20.191Z,12.40
2018-11-29T07:21:52.653Z,11.75
2018-11-29T07:24:21.246Z,12.35
2018-11-29T07:26:49.813Z,11.38
2018-11-29T07:29:18.442Z,10.65
2018-11-29T07:31:46.951Z,11.18
2018-11-29T07:34:15.508Z,11.28
2018-11-29T07:36:44.035Z,10.82
2018-11-29T07:39:12.575Z,9.43
2018-11-29T07:41:41.134Z,11.40
2018-11-29T07:44:10.577Z,10.23
2018-11-29T07:46:39.143Z,10.15
2018-11-29T07:49:07.706Z,10.85
2018-11-29T07:51:36.258Z,9.98
2018-11-29T07:54:04.942Z,7.80
2018-11-29T07:56:33.493Z,9.70
2018-11-29T07:59:02.076Z,10.00
2018-11-29T08:01:30.617Z,10.48
2018-11-29T08:03:59.203Z,10.78
2018-11-29T08:06:27.883Z,11.33
2018-11-29T08:08:56.447Z,9.58
2018-11-29T08:11:25.043Z,10.20
2018-11-29T08:13:53.589Z,10.88
2018-11-29T08:16:22.164Z,10.58
2018-11-29T08:18:50.861Z,10.75
2018-11-29T08:21:19.419Z,10.10
2018-11-29T08:23:47.974Z,11.55
2018-11-29T08:26:16.532Z,8.78
2018-11-29T08:28:45.063Z,8.63
2018-11-29T08:31:13.616Z,9.10
2018-11-29T08:33:42.127Z,7.92
2018-11-29T08:36:10.640Z,7.30
2018-11-29T08:38:39.180Z,6.72
2018-11-29T08:41:07.711Z,7.37
2018-11-29T08:43:36.289Z,8.55
2018-11-29T08:46:04.927Z,7.45
2018-11-29T08:48:33.459Z,7.45
2018-11-29T08:51:02.037Z,8.00
2018-11-29T08:53:30.549Z,7.37
2018-11-29T08:55:59.130Z,7.45
2018-11-29T08:58:27.650Z,7.45
2018-11-29T09:00:56.193Z,7.47
2018-11-29T09:03:24.791Z,8.13
2018-11-29T09:05:53.333Z,7.72
2018-11-29T09:08:21.883Z,7.08
2018-11-29T09:10:50.380Z,7.78
2018-11-29T09:13:18.937Z,8.25
2018-11-29T09:15:47.538Z,9.93
2018-11-29T09:18:16.091Z,8.25
2018-11-29T09:20:44.679Z,8.95
2018-11-29T09:23:13.240Z,9.20
2018-11-29T09:25:41.770Z,8.90
2018-11-29T09:28:10.319Z,7.42
2018-11-29T09:30:38.817Z,7.50
2018-11-29T09:33:07.370Z,7.67
2018-11-29T09:35:35.875Z,7.62
2018-11-29T09:38:04.487Z,9.98
2018-11-29T09:40:33.116Z,8.15
2018-11-29T09:43:01.606Z,6.87
2018-11-29T09:45:30.158Z,8.10
2018-11-29T09:47:58.692Z,6.80
2018-11-29T09:50:27.283Z,6.97
2018-11-29T09:52:55.865Z,7.25
2018-11-29T09:55:24.401Z,6.87
2018-11-29T09:57:52.997Z,7.35
2018-11-29T10:00:27.959Z,7.92
2018-11-29T10:03:04.811Z,6.75
2018-11-29T10:05:33.351Z,6.70
2018-11-29T10:08:01.949Z,6.37
2018-11-29T10:10:30.540Z,8.70
2018-11-29T10:12:59.111Z,6.60
2018-11-29T10:15:27.670Z,8.25
2018-11-29T10:17:56.265Z,7.22
2018-11-29T10:20:24.838Z,6.20
2018-11-29T10:22:53.410Z,7.35
2018-11-29T10:25:21.919Z,6.78
2018-11-29T10:27:52.254Z,6.87
2018-11-29T10:30:24.572Z,7.08
2018-11-29T10:32:53.136Z,6.78
2018-11-29T10:35:21.746Z,6.78
2018-11-29T10:37:50.294Z,6.30
2018-11-29T10:40:18.888Z,7.40
2018-11-29T10:42:47.417Z,7.00
2018-11-29T10:45:17.553Z,6.40
2018-11-29T10:47:52.322Z,5.53
2018-11-29T10:50:16.041Z,4.80
2018-11-29T10:52:44.554Z,5.85
2018-11-29T10:55:15.461Z,5.75
2018-11-29T10:57:44.072Z,6.00
2018-11-29T11:00:32.908Z,5.15
2018-11-29T11:03:07.874Z,5.70
2018-11-29T11:05:37.131Z,5.80
2018-11-29T11:08:08.507Z,4.90
2018-11-29T11:10:35.634Z,5.25
2018-11-29T11:13:04.243Z,5.75
2018-11-29T11:15:32.781Z,4.50
2018-11-29T11:18:01.320Z,4.65
2018-11-29T11:20:29.869Z,5.70
2018-11-29T11:22:58.413Z,5.62
2018-11-29T11:25:26.962Z,5.22
2018-11-29T11:27:55.482Z,5.05
2018-11-29T11:30:24.042Z,4.50
2018-11-29T11:32:52.986Z,5.80
2018-11-29T11:35:21.551Z,4.40
2018-11-29T11:37:50.115Z,4.62
2018-11-29T11:40:18.709Z,5.15
2018-11-29T11:42:47.560Z,4.80
2018-11-29T11:45:18.025Z,5.22
2018-11-29T11:47:46.681Z,4.70
2018-11-29T11:50:19.405Z,4.28
2018-11-29T11:52:48.131Z,4.62
2018-11-29T11:55:19.156Z,4.45
2018-11-29T11:57:45.966Z,4.28
2018-11-29T12:00:20.684Z,4.20
2018-11-29T12:02:52.595Z,4.75
2018-11-29T12:05:21.170Z,4.60
2018-11-29T12:07:49.744Z,4.13
2018-11-29T12:10:18.330Z,4.00
2018-11-29T12:12:46.934Z,4.05
2018-11-29T12:15:16.031Z,3.37
2018-11-29T12:17:46.425Z,5.08
2018-11-29T12:20:16.149Z,3.70
2018-11-29T12:22:44.798Z,4.73
2018-11-29T12:25:21.118Z,4.40
2018-11-29T12:27:49.994Z,4.78
2018-11-29T12:30:22.605Z,4.85
2018-11-29T12:32:51.724Z,4.33
2018-11-29T12:35:20.259Z,5.23
2018-11-29T12:37:48.790Z,4.80
2018-11-29T12:40:17.479Z,4.43
2018-11-29T12:42:46.004Z,4.90
2018-11-29T12:45:15.026Z,4.40
2018-11-29T12:47:44.001Z,4.50
2018-11-29T12:50:15.660Z,4.25
2018-11-29T12:52:44.250Z,4.65
2018-11-29T12:55:13.741Z,5.33
2018-11-29T12:57:42.336Z,5.20
2018-11-29T13:00:17.837Z,3.83
2018-11-29T13:02:48.479Z,5.15
2018-11-29T13:05:17.058Z,4.65
2018-11-29T13:07:45.629Z,5.40
2018-11-29T13:10:16.421Z,4.25
2018-11-29T13:12:45.035Z,5.20
2018-11-29T13:15:18.162Z,5.00
2018-11-29T13:17:46.766Z,5.08
2018-11-29T13:20:17.262Z,5.00
2018-11-29T13:22:45.808Z,5.37
2018-11-29T13:25:16.440Z,6.65
2018-11-29T13:27:44.967Z,6.00
2018-11-29T13:30:15.442Z,6.53
2018-11-29T13:32:44.363Z,6.72
2018-11-29T13:35:16.947Z,6.75
2018-11-29T13:37:47.113Z,7.05
2018-11-29T13:42:47.258Z,5.30
2018-11-29T13:45:15.794Z,7.65
2018-11-29T13:47:44.348Z,6.25
2018-11-29T13:50:16.535Z,5.67
2018-11-29T13:52:45.233Z,5.55
2018-11-29T13:55:14.687Z,5.80
2018-11-29T13:57:46.346Z,5.87
2018-11-29T14:00:16.730Z,7.40
2018-11-29T14:02:47.098Z,6.03
2018-11-29T14:05:14.716Z,5.55
2018-11-29T14:07:43.279Z,6.58
2018-11-29T14:10:13.338Z,5.25
2018-11-29T14:12:41.861Z,6.75
2018-11-29T14:15:13.125Z,6.58
2018-11-29T14:17:41.692Z,6.70
2018-11-29T14:20:11.173Z,7.58
2018-11-29T14:22:39.738Z,8.10
2018-11-29T14:25:10.009Z,7.78
2018-11-29T14:27:38.443Z,8.58
2018-11-29T14:30:13.143Z,7.28
2018-11-29T14:32:41.723Z,6.80
2018-11-29T14:35:10.254Z,7.03
2018-11-29T14:37:45.316Z,6.97
2018-11-29T14:40:17.126Z,7.92
2018-11-29T14:42:45.714Z,7.15
2018-11-29T14:45:15.385Z,6.60
2018-11-29T14:47:43.950Z,6.28
2018-11-29T14:50:47.334Z,7.05
2018-11-29T14:53:18.815Z,6.83
2018-11-29T14:55:47.314Z,6.42
2018-11-29T14:58:19.653Z,7.20
2018-11-29T15:00:44.470Z,6.42
2018-11-29T15:03:17.636Z,7.40
2018-11-29T15:05:46.627Z,8.03
2018-11-29T15:08:15.133Z,9.45
2018-11-29T15:10:43.712Z,7.28
2018-11-29T15:13:12.794Z,7.78
2018-11-29T15:15:42.216Z,8.45
2018-11-29T15:18:11.474Z,11.30
2018-11-29T15:20:41.578Z,8.90
2018-11-29T15:25:29.266Z,9.70
2018-11-29T15:27:57.806Z,5.75
2018-11-29T15:30:26.303Z,6.87
2018-11-29T15:32:55.225Z,8.75
2018-11-29T15:35:23.741Z,7.58
2018-11-29T15:37:52.886Z,9.33
2018-11-29T15:40:21.425Z,13.50
2018-11-29T15:42:49.975Z,12.50
2018-11-29T15:45:20.528Z,12.90
2018-11-29T15:47:49.130Z,9.80
2018-11-29T15:50:17.774Z,9.98
2018-11-29T15:52:46.404Z,10.82
2018-11-29T15:55:16.774Z,10.55
2018-11-29T15:57:46.219Z,9.45
2018-11-29T16:00:25.023Z,9.23
2018-11-29T16:02:54.332Z,10.78
2018-11-29T16:05:22.846Z,10.75
2018-11-29T16:07:51.430Z,9.68
2018-11-29T16:10:21.431Z,10.20
2018-11-29T16:12:50.047Z,10.63
2018-11-29T16:15:19.383Z,9.50
2018-11-29T16:17:48.709Z,10.13
2018-11-29T16:20:32.393Z,19.67
2018-11-29T16:23:01.033Z,12.47
2018-11-29T16:25:29.588Z,9.88
2018-11-29T16:27:58.235Z,12.43
2018-11-29T16:30:34.606Z,11.60
2018-11-29T16:33:12.032Z,10.80
2018-11-29T16:35:40.521Z,10.98
2018-11-29T16:38:09.297Z,11.95
2018-11-29T16:40:37.971Z,11.25
2018-11-29T16:43:07.411Z,13.13
2018-11-29T16:45:36.592Z,15.53
2018-11-29T16:48:05.381Z,14.13
2018-11-29T16:50:33.925Z,15.55
2018-11-29T16:53:02.474Z,14.18
2018-11-29T16:55:30.997Z,11.83
2018-11-29T16:58:01.604Z,14.53
2018-11-29T17:00:30.605Z,18.82
2018-11-29T17:03:00.282Z,9.55
2018-11-29T17:05:33.548Z,9.08
2018-11-29T17:08:02.156Z,8.58
2018-11-29T17:10:30.682Z,18.02
2018-11-29T17:13:01.345Z,18.02
2018-11-29T17:15:30.059Z,16.75
2018-11-29T17:17:58.611Z,16.12
2018-11-29T17:20:27.124Z,14.50
2018-11-29T17:22:55.697Z,11.85
2018-11-29T17:25:24.212Z,12.18
2018-11-29T17:27:52.794Z,16.42
2018-11-29T17:30:23.393Z,15.50
2018-11-29T17:32:54.034Z,14.45
2018-11-29T17:35:22.669Z,13.60
2018-11-29T17:37:51.510Z,16.40
2018-11-29T17:40:20.976Z,16.50
2018-11-29T17:42:50.038Z,15.13
2018-11-29T17:45:22.849Z,18.25
2018-11-29T17:47:53.835Z,17.27
2018-11-29T17:50:25.710Z,20.95
2018-11-29T17:52:54.258Z,19.35
2018-11-29T17:55:22.841Z,17.80
2018-11-29T17:57:51.412Z,19.32
2018-11-29T18:00:22.238Z,16.77
2018-11-29T18:02:50.819Z,17.98
2018-11-29T18:05:19.793Z,17.65
2018-11-29T18:07:48.642Z,18.10
2018-11-29T18:10:20.630Z,15.88
2018-11-29T18:12:50.649Z,15.00
2018-11-29T18:15:22.430Z,14.58
2018-11-29T18:17:51.051Z,15.98
2018-11-29T18:20:19.662Z,16.45
2018-11-29T18:22:48.226Z,18.70
2018-11-29T18:25:17.438Z,15.35
2018-11-29T18:27:48.299Z,18.00
2018-11-29T18:30:18.114Z,15.15
2018-11-29T18:32:46.671Z,16.50
2018-11-29T18:35:15.582Z,15.53
2018-11-29T18:37:44.354Z,14.93
2018-11-29T18:40:16.667Z,17.87
2018-11-29T18:42:46.687Z,16.02
2018-11-29T18:45:16.627Z,16.95
2018-11-29T18:47:46.295Z,17.05
2018-11-29T18:50:18.831Z,18.30
2018-11-29T18:52:47.549Z,16.25
2018-11-29T18:55:16.347Z,15.88
2018-11-29T18:57:44.924Z,17.00
2018-11-29T19:00:14.855Z,18.12
2018-11-29T19:02:43.558Z,16.23
2018-11-29T19:05:12.136Z,17.70
2018-11-29T19:07:40.746Z,19.00
2018-11-29T19:10:14.402Z,18.37
2018-11-29T19:12:54.321Z,17.62
2018-11-29T19:15:22.874Z,19.67
2018-11-29T19:17:51.468Z,21.77
2018-11-29T19:20:23.019Z,22.37
2018-11-29T19:22:51.556Z,19.82
2018-11-29T19:25:20.506Z,21.40
2018-11-29T19:27:49.087Z,19.82
2018-11-29T19:30:21.634Z,20.10
2018-11-29T19:32:52.026Z,20.60
2018-11-29T19:35:20.581Z,18.98
2018-11-29T19:37:49.044Z,18.25
2018-11-29T19:40:18.021Z,18.77
2018-11-29T19:42:46.518Z,17.95
2018-11-29T19:45:15.925Z,15.68
2018-11-29T19:47:44.547Z,19.00
2018-11-29T19:50:14.522Z,17.50
2018-11-29T19:52:44.315Z,16.65
2018-11-29T19:55:14.654Z,16.40
2018-11-29T19:57:43.257Z,16.23
2018-11-29T20:00:12.982Z,15.65
2018-11-29T20:02:42.322Z,15.53
2018-11-29T20:05:11.746Z,14.43
2018-11-29T20:07:40.373Z,14.60
2018-11-29T20:10:10.671Z,14.47
2018-11-29T20:12:39.270Z,14.85
2018-11-29T20:15:18.089Z,15.43
2018-11-29T20:17:50.124Z,16.00
2018-11-29T20:20:18.661Z,17.12
2018-11-29T20:22:47.193Z,15.50
2018-11-29T20:25:18.923Z,15.10
2018-11-29T20:27:53.757Z,16.50
2018-11-29T20:30:23.369Z,15.65
2018-11-29T20:32:54.119Z,17.30
2018-11-29T20:35:22.741Z,17.12
2018-11-29T20:37:52.303Z,17.17
2018-11-29T20:40:25.152Z,16.48
2018-11-29T20:42:54.919Z,16.57
2018-11-29T20:45:32.954Z,16.93
2018-11-29T20:48:02.497Z,16.45
2018-11-29T20:50:31.009Z,18.30
2018-11-29T20:53:00.292Z,16.42
2018-11-29T20:55:31.139Z,20.25
2018-11-29T20:57:59.733Z,17.05
2018-11-29T21:00:28.279Z,18.15
2018-11-29T21:02:56.818Z,16.60
2018-11-29T21:05:25.742Z,15.98
2018-11-29T21:07:56.142Z,15.70
2018-11-29T21:10:25.611Z,16.55
2018-11-29T21:12:54.397Z,16.73
2018-11-29T21:15:23.061Z,15.80
2018-11-29T21:17:51.643Z,15.88
2018-11-29T21:20:21.526Z,15.45
2018-11-29T21:22:51.086Z,15.18
2018-11-29T21:25:23.875Z,15.58
2018-11-29T21:27:52.405Z,15.70
2018-11-29T21:30:20.918Z,15.32
2018-11-29T21:32:50.066Z,17.10
2018-11-29T21:35:21.720Z,15.85
2018-11-29T21:37:51.239Z,13.83
2018-11-29T21:40:23.151Z,14.40
2018-11-29T21:42:51.721Z,17.50
2018-11-29T21:45:20.221Z,15.93
2018-11-29T21:47:48.803Z,16.65
2018-11-29T21:50:17.357Z,15.90
2018-11-29T21:52:45.873Z,16.42
2018-11-29T21:55:14.446Z,16.40
2018-11-29T21:57:43.022Z,17.25
2018-11-29T22:00:17.058Z,18.82
2018-11-29T22:02:48.113Z,17.67
2018-11-29T22:05:16.619Z,19.20
2018-11-29T22:07:45.139Z,20.32
2018-11-29T22:10:13.706Z,21.37
2018-11-29T22:12:42.287Z,19.15
2018-11-29T22:15:11.802Z,19.95
2018-11-29T22:18:49.147Z,19.52
2018-11-29T22:21:17.673Z,18.57
2018-11-29T22:23:46.183Z,18.95
2018-11-29T22:26:16.023Z,19.17
2018-11-29T22:28:44.592Z,18.45
2018-11-29T22:31:13.147Z,16.42
2018-11-29T22:33:48.132Z,15.23
2018-11-29T22:36:16.656Z,16.75
2018-11-29T22:38:45.159Z,16.95
2018-11-29T22:41:13.699Z,16.40
2018-11-29T22:43:42.345Z,15.30
2018-11-29T22:46:10.881Z,16.62
2018-11-29T22:48:39.461Z,20.25
2018-11-29T22:51:08.003Z,23.70
2018-11-29T22:53:36.565Z,24.40
2018-11-29T22:56:05.089Z,27.25
2018-11-29T22:58:33.667Z,26.12
2018-11-29T23:01:02.246Z,22.05
2018-11-29T23:03:30.802Z,20.05
2018-11-29T23:05:59.353Z,19.45
2018-11-29T23:08:27.920Z,20.90
2018-11-29T23:10:56.448Z,20.12
2018-11-29T23:13:24.973Z,18.85
2018-11-29T23:15:53.490Z,20.60
2018-11-29T23:18:22.021Z,21.10
2018-11-29T23:20:50.527Z,19.70
2018-11-29T23:23:19.091Z,21.65
2018-11-29T23:25:47.649Z,20.70
2018-11-29T23:28:16.216Z,20.62
2018-11-29T23:30:44.764Z,20.40
2018-11-29T23:33:13.317Z,18.92
2018-11-29T23:35:41.859Z,20.20
2018-11-29T23:38:10.391Z,18.70
2018-11-29T23:40:38.985Z,23.07
2018-11-29T23:43:07.570Z,23.65
2018-11-29T23:45:36.155Z,26.02
2018-11-29T23:48:04.690Z,23.05
2018-11-29T23:50:33.237Z,24.75
2018-11-29T23:53:01.745Z,22.80
2018-11-29T23:55:30.707Z,24.32
2018-11-29T23:57:59.230Z,26.07
